Terminal Aerodrome Forecast
Issued by NWS Cleveland, OH

Home | Current Version | Previous Version | Text Only | Print | Product List | Glossary Off
Versions: 1 2 3 4 5 6 7 8 9 10 11 12 13 14 15 16 17

381
FTUS41 KCLE 251735
TAFERI
TAF
KERI 251735Z 2518/2618 25012KT P6SM VCTS SCT050CB BKN100
     FM260000 25010G20KT P6SM SCT050
     FM260400 26010KT P6SM -SHRA BKN035 OVC050
     FM261500 25015G25KT P6SM OVC050=

USA.gov is the U.S. government's official web portal to all federal, state and local government web resources and services.